createdAt,value
2019-02-23T00:00:50.492Z,36.21
2019-02-23T00:03:20.288Z,36.14
2019-02-23T00:05:50.067Z,35.92
2019-02-23T00:08:19.867Z,34.71
2019-02-23T00:10:49.628Z,35.26
2019-02-23T00:13:19.481Z,34.56
2019-02-23T00:15:49.261Z,34.35
2019-02-23T00:18:18.947Z,34.78
2019-02-23T00:20:48.645Z,33.94
2019-02-23T00:23:18.322Z,35.49
2019-02-23T00:25:48.246Z,35.84
2019-02-23T00:28:18.045Z,35.84
2019-02-23T00:30:47.826Z,35.50
2019-02-23T00:33:17.596Z,35.62
2019-02-23T00:35:47.375Z,35.18
2019-02-23T00:38:17.171Z,35.19
2019-02-23T00:40:46.934Z,34.56
2019-02-23T00:43:16.726Z,34.29
2019-02-23T00:45:46.537Z,34.29
2019-02-23T00:48:16.645Z,34.96
2019-02-23T00:50:46.447Z,35.32
2019-02-23T00:53:17.689Z,34.66
2019-02-23T00:55:47.484Z,34.66
2019-02-23T00:58:17.241Z,34.37
2019-02-23T01:00:46.965Z,34.50
2019-02-23T01:03:16.886Z,34.24
2019-02-23T01:05:46.719Z,34.33
2019-02-23T01:08:16.397Z,33.97
2019-02-23T01:10:57.513Z,34.16
2019-02-23T01:13:17.998Z,34.25
2019-02-23T01:15:47.720Z,34.38
2019-02-23T01:18:17.423Z,33.29
2019-02-23T01:20:47.166Z,32.99
2019-02-23T01:23:16.924Z,32.72
2019-02-23T01:25:46.746Z,33.24
2019-02-23T01:28:16.531Z,33.25
2019-02-23T01:30:46.301Z,33.47
2019-02-23T01:33:17.303Z,31.64
2019-02-23T01:35:48.167Z,31.64
2019-02-23T01:38:17.964Z,31.86
2019-02-23T01:40:47.869Z,31.86
2019-02-23T01:43:17.537Z,32.32
2019-02-23T01:45:47.309Z,31.77
2019-02-23T01:48:17.079Z,32.10
2019-02-23T01:50:46.883Z,31.90
2019-02-23T01:53:16.640Z,32.21
2019-02-23T01:55:46.388Z,32.07
2019-02-23T01:58:16.168Z,32.39
2019-02-23T02:00:45.946Z,32.11
2019-02-23T02:03:15.769Z,31.87
2019-02-23T02:05:45.542Z,31.63
2019-02-23T02:08:15.339Z,31.61
2019-02-23T02:10:45.260Z,31.53
2019-02-23T02:13:15.205Z,31.40
2019-02-23T02:15:44.993Z,31.67
2019-02-23T02:18:14.768Z,31.28
2019-02-23T02:20:44.555Z,31.32
2019-02-23T02:23:14.296Z,31.97
2019-02-23T02:25:44.130Z,31.29
2019-02-23T02:28:13.877Z,30.75
2019-02-23T02:30:43.681Z,30.64
2019-02-23T02:33:13.434Z,30.57
2019-02-23T02:35:43.189Z,30.55
2019-02-23T02:38:12.997Z,30.17
2019-02-23T02:40:42.676Z,30.29
2019-02-23T02:43:12.531Z,29.95
2019-02-23T02:45:42.320Z,30.07
2019-02-23T02:48:12.012Z,29.76
2019-02-23T02:50:41.828Z,29.99
2019-02-23T02:53:11.596Z,29.77
2019-02-23T02:55:41.376Z,29.81
2019-02-23T02:58:11.984Z,30.19
2019-02-23T03:00:41.778Z,30.12
2019-02-23T03:03:11.561Z,29.88
2019-02-23T03:05:41.299Z,30.02
2019-02-23T03:08:11.148Z,30.88
2019-02-23T03:10:40.826Z,31.18
2019-02-23T03:13:10.605Z,30.32
2019-02-23T03:15:40.305Z,30.18
2019-02-23T03:18:10.004Z,30.16
2019-02-23T03:20:39.717Z,30.15
2019-02-23T03:23:09.452Z,30.17
2019-02-23T03:25:39.341Z,31.34
2019-02-23T03:28:09.014Z,33.81
2019-02-23T03:30:38.771Z,34.46
2019-02-23T03:33:08.476Z,35.05
2019-02-23T03:35:38.141Z,35.60
2019-02-23T03:38:07.955Z,35.42
2019-02-23T03:40:37.620Z,35.69
2019-02-23T03:43:07.360Z,36.19
2019-02-23T03:45:37.170Z,35.83
2019-02-23T03:48:06.903Z,36.05
2019-02-23T03:50:48.451Z,37.05
2019-02-23T03:53:08.202Z,37.47
2019-02-23T03:55:37.973Z,37.00
2019-02-23T03:58:07.804Z,39.28
2019-02-23T04:00:37.505Z,38.85
2019-02-23T04:03:07.371Z,38.02
2019-02-23T04:05:39.973Z,37.35
2019-02-23T04:08:09.817Z,36.25
2019-02-23T04:10:39.477Z,35.96
2019-02-23T04:13:10.572Z,35.74
2019-02-23T04:15:40.548Z,36.39
2019-02-23T04:18:10.227Z,37.32
2019-02-23T04:20:40.037Z,38.26
2019-02-23T04:23:09.696Z,39.25
2019-02-23T04:25:39.538Z,39.18
2019-02-23T04:28:09.339Z,38.59
2019-02-23T04:30:39.118Z,38.09
2019-02-23T04:33:08.914Z,38.75
2019-02-23T04:35:38.656Z,39.40
2019-02-23T04:38:08.475Z,40.40
2019-02-23T04:40:38.248Z,40.89
2019-02-23T04:43:07.975Z,40.73
2019-02-23T04:45:37.752Z,40.98
2019-02-23T04:48:07.541Z,41.46
2019-02-23T04:50:37.271Z,42.43
2019-02-23T04:53:06.977Z,41.06
2019-02-23T04:55:36.701Z,39.95
2019-02-23T04:58:06.469Z,40.64
2019-02-23T05:00:36.109Z,39.84
2019-02-23T05:03:05.819Z,39.89
2019-02-23T05:05:35.601Z,40.02
2019-02-23T05:08:05.372Z,41.31
2019-02-23T05:10:35.166Z,41.30
2019-02-23T05:13:05.781Z,41.74
2019-02-23T05:15:35.458Z,42.18
2019-02-23T05:18:05.188Z,41.38
2019-02-23T05:20:34.990Z,41.44
2019-02-23T05:23:04.671Z,42.56
2019-02-23T05:25:34.447Z,42.50
2019-02-23T05:28:04.217Z,42.31
2019-02-23T05:30:33.923Z,42.07
2019-02-23T05:33:03.730Z,42.50
2019-02-23T05:35:33.435Z,43.38
2019-02-23T05:38:03.261Z,42.62
2019-02-23T05:40:33.067Z,65.65
2019-02-23T05:43:02.960Z,49.83
2019-02-23T05:45:32.685Z,52.11
2019-02-23T05:48:02.488Z,45.21
2019-02-23T05:50:32.212Z,39.91
2019-02-23T05:53:01.855Z,41.33
2019-02-23T05:55:31.566Z,42.81
2019-02-23T05:58:01.335Z,42.46
2019-02-23T06:00:31.116Z,43.10
2019-02-23T06:03:00.760Z,43.49
2019-02-23T06:05:31.959Z,44.08
2019-02-23T06:08:01.664Z,44.87
2019-02-23T06:10:31.492Z,44.32
2019-02-23T06:13:01.368Z,43.53
2019-02-23T06:15:31.047Z,43.78
2019-02-23T06:18:00.871Z,42.79
2019-02-23T06:20:30.789Z,53.04
2019-02-23T06:23:00.570Z,39.50
2019-02-23T06:25:30.236Z,41.26
2019-02-23T06:28:00.067Z,41.26
2019-02-23T06:30:29.847Z,43.24
2019-02-23T06:32:59.603Z,43.24
2019-02-23T06:35:30.028Z,41.97
2019-02-23T06:37:59.783Z,42.30
2019-02-23T06:40:29.526Z,40.24
2019-02-23T06:42:59.327Z,40.90
2019-02-23T06:45:29.148Z,39.76
2019-02-23T06:47:58.836Z,39.86
2019-02-23T06:50:28.666Z,37.89
2019-02-23T06:52:58.312Z,37.13
2019-02-23T06:55:29.024Z,35.95
2019-02-23T06:58:00.451Z,35.46
2019-02-23T07:00:30.196Z,34.76
2019-02-23T07:02:59.996Z,33.94
2019-02-23T07:05:29.772Z,33.94
2019-02-23T07:07:59.499Z,34.28
2019-02-23T07:10:35.540Z,33.40
2019-02-23T07:13:05.673Z,33.29
2019-02-23T07:15:37.868Z,32.96
2019-02-23T07:18:07.762Z,40.96
2019-02-23T07:20:44.110Z,36.32
2019-02-23T07:23:09.040Z,33.31
2019-02-23T07:25:38.878Z,33.39
2019-02-23T07:28:11.023Z,34.05
2019-02-23T07:30:40.815Z,33.28
2019-02-23T07:33:10.595Z,33.52
2019-02-23T07:35:40.367Z,33.43
2019-02-23T07:38:12.629Z,33.10
2019-02-23T07:40:42.854Z,33.03
2019-02-23T07:43:12.694Z,32.46
2019-02-23T07:45:42.458Z,32.19
2019-02-23T07:48:12.272Z,32.43
2019-02-23T07:50:42.770Z,33.18
2019-02-23T07:53:14.050Z,33.45
2019-02-23T07:55:43.843Z,33.56
2019-02-23T07:58:14.402Z,33.04
2019-02-23T08:00:45.736Z,32.94
2019-02-23T08:03:15.529Z,33.46
2019-02-23T08:05:45.226Z,33.46
2019-02-23T08:08:15.098Z,31.11
2019-02-23T08:10:44.856Z,30.50
2019-02-23T08:13:14.536Z,30.24
2019-02-23T08:15:44.326Z,32.20
2019-02-23T08:18:14.809Z,32.96
2019-02-23T08:20:45.680Z,32.80
2019-02-23T08:23:15.463Z,32.47
2019-02-23T08:25:45.247Z,31.04
2019-02-23T08:28:14.986Z,30.39
2019-02-23T08:30:44.781Z,30.86
2019-02-23T08:33:14.561Z,30.17
2019-02-23T08:35:44.489Z,30.16
2019-02-23T08:38:14.190Z,30.33
2019-02-23T08:40:43.989Z,30.33
2019-02-23T08:43:13.742Z,29.77
2019-02-23T08:45:43.532Z,28.60
2019-02-23T08:48:13.309Z,28.12
2019-02-23T08:50:43.977Z,26.74
2019-02-23T08:53:15.322Z,27.06
2019-02-23T08:55:45.295Z,28.88
2019-02-23T08:58:15.833Z,28.95
2019-02-23T09:00:47.142Z,27.41
2019-02-23T09:03:16.733Z,25.50
2019-02-23T09:05:46.234Z,25.09
2019-02-23T09:08:16.046Z,24.39
2019-02-23T09:10:46.622Z,24.00
2019-02-23T09:13:16.409Z,23.58
2019-02-23T09:15:47.648Z,22.05
2019-02-23T09:18:17.594Z,20.91
2019-02-23T09:20:47.373Z,22.10
2019-02-23T09:23:17.118Z,21.87
2019-02-23T09:25:46.775Z,21.18
2019-02-23T09:28:16.561Z,21.16
2019-02-23T09:30:46.673Z,19.63
2019-02-23T09:33:18.885Z,18.86
2019-02-23T09:35:48.807Z,18.85
2019-02-23T09:38:18.577Z,19.37
2019-02-23T09:40:49.231Z,18.33
2019-02-23T09:43:21.724Z,19.46
2019-02-23T09:45:52.379Z,19.15
2019-02-23T09:48:23.105Z,18.25
2019-02-23T09:50:53.087Z,19.24
2019-02-23T09:53:22.601Z,19.30
2019-02-23T09:55:52.377Z,18.89
2019-02-23T09:58:22.134Z,18.41
2019-02-23T10:00:51.941Z,18.76
2019-02-23T10:03:22.536Z,18.30
2019-02-23T10:05:52.788Z,18.12
2019-02-23T10:08:23.416Z,20.05
2019-02-23T10:10:53.261Z,21.86
2019-02-23T10:13:23.885Z,21.64
2019-02-23T10:15:53.998Z,21.54
2019-02-23T10:18:24.443Z,20.98
2019-02-23T10:20:54.453Z,20.30
2019-02-23T10:23:24.706Z,20.52
2019-02-23T10:25:54.473Z,20.36
2019-02-23T10:28:24.235Z,20.83
2019-02-23T10:30:56.768Z,20.36
2019-02-23T10:33:26.812Z,21.16
2019-02-23T10:35:58.109Z,20.93
2019-02-23T10:38:27.924Z,21.25
2019-02-23T10:40:59.781Z,20.47
2019-02-23T10:43:29.152Z,22.00
2019-02-23T10:46:01.406Z,21.78
2019-02-23T10:48:31.151Z,20.73
2019-02-23T10:51:00.956Z,21.40
2019-02-23T10:53:33.448Z,21.20
2019-02-23T10:56:03.058Z,21.14
2019-02-23T10:58:32.878Z,21.01
2019-02-23T11:01:02.782Z,21.91
2019-02-23T11:03:32.527Z,21.15
2019-02-23T11:06:04.236Z,20.66
2019-02-23T11:08:34.936Z,19.79
2019-02-23T11:11:05.417Z,19.89
2019-02-23T11:13:35.616Z,19.85
2019-02-23T11:16:05.255Z,19.93
2019-02-23T11:18:35.675Z,19.72
2019-02-23T11:21:05.487Z,20.39
2019-02-23T11:23:43.725Z,18.87
2019-02-23T11:26:07.773Z,18.40
2019-02-23T11:28:37.689Z,18.61
2019-02-23T11:31:08.185Z,18.92
2019-02-23T11:33:37.970Z,18.72
2019-02-23T11:36:07.717Z,18.32
2019-02-23T11:38:37.537Z,17.88
2019-02-23T11:41:07.197Z,17.94
2019-02-23T11:43:39.156Z,17.95
2019-02-23T11:46:09.023Z,17.98
2019-02-23T11:48:38.815Z,18.25
2019-02-23T11:51:08.717Z,17.82
2019-02-23T11:53:39.391Z,17.36
2019-02-23T11:56:09.886Z,17.53
2019-02-23T11:58:42.198Z,17.96
2019-02-23T12:01:12.079Z,17.43
2019-02-23T12:03:41.871Z,17.54
2019-02-23T12:06:11.789Z,17.69
2019-02-23T12:08:42.668Z,17.59
2019-02-23T12:11:12.471Z,17.68
2019-02-23T12:13:42.210Z,17.71
2019-02-23T12:16:12.011Z,17.20
2019-02-23T12:18:41.852Z,17.08
2019-02-23T12:21:11.599Z,17.62
2019-02-23T12:23:41.661Z,17.60
2019-02-23T12:26:11.500Z,18.23
2019-02-23T12:28:41.304Z,18.38
2019-02-23T12:31:10.972Z,17.43
2019-02-23T12:33:40.755Z,17.03
2019-02-23T12:36:10.551Z,17.71
2019-02-23T12:38:40.370Z,17.91
2019-02-23T12:41:10.125Z,18.02
2019-02-23T12:43:40.010Z,18.06
2019-02-23T12:46:10.152Z,18.25
2019-02-23T12:48:39.961Z,18.11
2019-02-23T12:51:10.432Z,18.00
2019-02-23T12:53:40.160Z,18.07
2019-02-23T12:56:10.395Z,18.33
2019-02-23T12:58:40.207Z,18.81
2019-02-23T13:01:09.822Z,19.01
2019-02-23T13:03:39.675Z,18.40
2019-02-23T13:06:09.478Z,18.87
2019-02-23T13:09:15.695Z,18.64
2019-02-23T13:11:54.952Z,19.28
2019-02-23T13:14:33.936Z,18.52
2019-02-23T13:17:06.726Z,18.47
2019-02-23T13:19:42.740Z,18.15
2019-02-23T13:22:30.690Z,18.95
2019-02-23T13:25:12.518Z,18.80
2019-02-23T13:28:06.565Z,18.88
2019-02-23T13:30:51.375Z,18.96
2019-02-23T13:33:48.535Z,19.06
2019-02-23T13:36:47.723Z,19.29
2019-02-23T13:39:38.116Z,19.01
2019-02-23T13:42:28.687Z,18.75
2019-02-23T13:45:04.180Z,18.61
2019-02-23T13:47:47.710Z,19.10
2019-02-23T13:50:45.428Z,19.18
2019-02-23T13:53:33.443Z,19.03
2019-02-23T13:56:14.545Z,19.23
2019-02-23T13:58:54.269Z,18.47
2019-02-23T14:01:33.279Z,18.88
2019-02-23T14:04:38.111Z,19.11
2019-02-23T14:07:16.622Z,18.66
2019-02-23T14:10:07.530Z,18.79
2019-02-23T14:13:10.791Z,18.96
2019-02-23T14:15:55.689Z,18.47
2019-02-23T14:18:53.456Z,18.48
2019-02-23T14:21:57.975Z,18.67
2019-02-23T14:24:50.453Z,18.38
2019-02-23T14:27:48.007Z,18.42
2019-02-23T14:30:38.624Z,18.56
2019-02-23T14:33:18.439Z,18.48
2019-02-23T14:35:51.323Z,18.47
2019-02-23T14:38:47.186Z,18.29
2019-02-23T14:41:23.149Z,18.00
2019-02-23T14:44:01.254Z,17.77
2019-02-23T14:46:46.382Z,17.99
2019-02-23T14:49:35.753Z,18.03
2019-02-23T14:52:43.398Z,18.53
2019-02-23T14:55:16.232Z,18.21
2019-02-23T14:58:01.206Z,18.62
2019-02-23T15:00:59.386Z,18.61
2019-02-23T15:03:48.584Z,19.18
2019-02-23T15:06:30.174Z,18.49
2019-02-23T15:09:20.953Z,18.61
2019-02-23T15:11:59.336Z,18.77
2019-02-23T15:14:40.765Z,18.60
2019-02-23T15:17:33.335Z,18.70
2019-02-23T15:20:20.709Z,19.14
2019-02-23T15:23:21.737Z,18.79
2019-02-23T15:26:00.197Z,18.88
2019-02-23T15:28:49.155Z,20.56
2019-02-23T15:31:28.335Z,21.95
2019-02-23T15:34:17.670Z,22.38
2019-02-23T15:37:01.563Z,22.61
2019-02-23T15:39:39.690Z,23.41
2019-02-23T15:42:15.264Z,22.97
2019-02-23T15:45:10.142Z,22.60
2019-02-23T15:48:19.010Z,22.37
2019-02-23T15:50:48.758Z,22.17
2019-02-23T15:53:18.730Z,22.42
2019-02-23T15:55:48.525Z,22.44
2019-02-23T15:58:19.220Z,22.03
2019-02-23T16:00:49.322Z,21.88
2019-02-23T16:03:19.125Z,22.68
2019-02-23T16:05:48.902Z,22.97
2019-02-23T16:08:18.737Z,23.00
2019-02-23T16:10:48.672Z,22.78
2019-02-23T16:13:18.555Z,22.78
2019-02-23T16:15:48.843Z,23.26
2019-02-23T16:18:18.751Z,23.26
2019-02-23T16:20:48.564Z,23.38
2019-02-23T16:23:18.336Z,25.45
2019-02-23T16:25:48.347Z,28.83
2019-02-23T16:28:18.118Z,25.60
2019-02-23T16:30:47.720Z,25.60
2019-02-23T16:33:17.512Z,25.41
2019-02-23T16:35:47.349Z,25.21
2019-02-23T16:38:17.438Z,24.75
2019-02-23T16:40:50.294Z,25.52
2019-02-23T16:43:18.989Z,25.52
2019-02-23T16:45:48.807Z,25.22
2019-02-23T16:48:18.607Z,25.37
2019-02-23T16:50:48.420Z,25.94
2019-02-23T16:53:18.714Z,26.06
2019-02-23T16:55:51.153Z,26.41
2019-02-23T16:58:20.048Z,26.32
2019-02-23T17:00:49.809Z,26.42
2019-02-23T17:03:19.631Z,26.79
2019-02-23T17:05:49.565Z,26.83
2019-02-23T17:08:21.041Z,26.83
2019-02-23T17:10:50.835Z,27.17
2019-02-23T17:13:20.698Z,27.70
2019-02-23T17:15:50.533Z,27.91
2019-02-23T17:18:20.342Z,27.72
2019-02-23T17:20:50.274Z,27.75
2019-02-23T17:23:20.072Z,28.74
2019-02-23T17:25:49.950Z,28.74
2019-02-23T17:28:19.723Z,28.88
2019-02-23T17:30:49.600Z,28.96
2019-02-23T17:33:19.432Z,29.12
2019-02-23T17:35:49.421Z,30.22
2019-02-23T17:38:19.254Z,29.28
2019-02-23T17:40:49.018Z,29.50
2019-02-23T17:43:18.863Z,29.27
2019-02-23T17:45:48.961Z,29.27
2019-02-23T17:48:18.748Z,29.20
2019-02-23T17:50:48.440Z,29.19
2019-02-23T17:53:18.370Z,29.69
2019-02-23T17:55:48.251Z,30.01
2019-02-23T17:58:17.889Z,30.01
2019-02-23T18:00:47.653Z,30.21
2019-02-23T18:03:17.475Z,30.25
2019-02-23T18:05:47.538Z,30.50
2019-02-23T18:08:17.375Z,30.65
2019-02-23T18:10:48.289Z,30.91
2019-02-23T18:13:18.248Z,30.79
2019-02-23T18:15:48.025Z,31.13
2019-02-23T18:18:20.458Z,31.24
2019-02-23T18:20:52.084Z,31.57
2019-02-23T18:23:21.884Z,31.93
2019-02-23T18:25:52.694Z,31.96
2019-02-23T18:28:22.510Z,32.44
2019-02-23T18:30:52.539Z,33.00
2019-02-23T18:33:22.335Z,32.97
2019-02-23T18:35:51.974Z,32.97
2019-02-23T18:38:22.812Z,32.99
2019-02-23T18:40:52.659Z,32.96
2019-02-23T18:43:22.479Z,32.96
2019-02-23T18:45:53.792Z,34.50
2019-02-23T18:48:24.721Z,34.75
2019-02-23T18:50:55.011Z,34.75
2019-02-23T18:53:24.822Z,34.55
2019-02-23T18:55:55.736Z,40.75
2019-02-23T18:58:27.322Z,37.57
2019-02-23T19:00:57.166Z,37.57
2019-02-23T19:03:26.919Z,37.14
2019-02-23T19:05:56.556Z,37.48
2019-02-23T19:08:26.334Z,37.21
2019-02-23T19:10:56.279Z,37.98
2019-02-23T19:13:26.124Z,37.98
2019-02-23T19:15:55.966Z,37.65
2019-02-23T19:18:25.827Z,35.04
2019-02-23T19:20:55.680Z,35.80
2019-02-23T19:23:25.544Z,35.39
2019-02-23T19:25:55.357Z,34.57
2019-02-23T19:28:25.151Z,34.62
2019-02-23T19:30:54.776Z,34.87
2019-02-23T19:33:24.697Z,35.00
2019-02-23T19:35:54.821Z,34.66
2019-02-23T19:38:24.900Z,37.15
2019-02-23T19:40:55.741Z,37.37
2019-02-23T19:43:25.571Z,37.97
2019-02-23T19:45:55.408Z,38.41
2019-02-23T19:48:25.213Z,39.28
2019-02-23T19:50:58.089Z,39.12
2019-02-23T19:53:27.935Z,39.27
2019-02-23T19:55:57.783Z,39.66
2019-02-23T19:58:28.650Z,39.90
2019-02-23T20:00:58.480Z,39.58
2019-02-23T20:03:28.331Z,39.61
2019-02-23T20:05:58.137Z,39.98
2019-02-23T20:08:28.018Z,40.96
2019-02-23T20:10:58.825Z,41.54
2019-02-23T20:13:28.650Z,41.73
2019-02-23T20:15:58.620Z,45.02
2019-02-23T20:18:28.865Z,52.23
2019-02-23T20:20:58.631Z,39.38
2019-02-23T20:23:28.508Z,38.49
2019-02-23T20:25:58.261Z,39.97
2019-02-23T20:28:28.093Z,40.35
2019-02-23T20:30:58.949Z,41.04
2019-02-23T20:33:28.740Z,41.57
2019-02-23T20:35:58.550Z,42.46
2019-02-23T20:38:29.202Z,43.18
2019-02-23T20:40:59.080Z,43.09
2019-02-23T20:43:30.053Z,43.03
2019-02-23T20:45:59.869Z,43.22
2019-02-23T20:48:38.856Z,42.79
2019-02-23T20:51:08.680Z,44.29
2019-02-23T20:53:38.428Z,44.61
2019-02-23T20:56:09.147Z,44.20
2019-02-23T20:58:38.730Z,44.44
2019-02-23T21:01:08.622Z,44.07
2019-02-23T21:03:38.179Z,45.17
2019-02-23T21:06:07.981Z,45.69
2019-02-23T21:08:37.884Z,45.18
2019-02-23T21:11:07.723Z,44.61
2019-02-23T21:13:37.849Z,45.17
2019-02-23T21:16:07.667Z,45.54
2019-02-23T21:18:37.611Z,45.34
2019-02-23T21:21:07.273Z,45.74
2019-02-23T21:23:39.773Z,46.20
2019-02-23T21:26:10.299Z,46.01
2019-02-23T21:28:40.415Z,45.92
2019-02-23T21:31:10.239Z,46.21
2019-02-23T21:33:40.016Z,46.79
2019-02-23T21:36:09.816Z,46.43
2019-02-23T21:38:39.644Z,47.19
2019-02-23T21:41:09.492Z,46.74
2019-02-23T21:43:39.237Z,46.09
2019-02-23T21:46:09.394Z,46.35
2019-02-23T21:48:39.683Z,46.15
2019-02-23T21:51:09.373Z,45.78
2019-02-23T21:53:39.556Z,46.25
2019-02-23T21:56:09.341Z,47.30
2019-02-23T21:58:40.114Z,46.83
2019-02-23T22:01:13.171Z,47.03
2019-02-23T22:03:43.237Z,46.99
2019-02-23T22:06:13.071Z,47.43
2019-02-23T22:08:42.834Z,47.80
2019-02-23T22:11:12.665Z,48.05
2019-02-23T22:13:42.450Z,47.61
2019-02-23T22:16:12.258Z,47.97
2019-02-23T22:18:42.079Z,47.56
2019-02-23T22:21:11.849Z,47.08
2019-02-23T22:23:41.662Z,49.10
2019-02-23T22:26:11.515Z,47.96
2019-02-23T22:28:41.267Z,48.20
2019-02-23T22:31:11.048Z,48.93
2019-02-23T22:33:40.873Z,48.85
2019-02-23T22:36:10.659Z,48.19
2019-02-23T22:38:40.296Z,48.10
2019-02-23T22:41:10.127Z,48.94
2019-02-23T22:43:39.916Z,49.45
2019-02-23T22:46:09.680Z,49.32
2019-02-23T22:48:39.800Z,48.98
2019-02-23T22:51:09.618Z,48.79
2019-02-23T22:53:39.401Z,48.39
2019-02-23T22:56:09.259Z,49.12
2019-02-23T22:58:39.049Z,49.33
2019-02-23T23:01:09.484Z,48.91
2019-02-23T23:03:39.614Z,49.22
2019-02-23T23:06:09.437Z,48.50
2019-02-23T23:08:39.219Z,47.76
2019-02-23T23:11:08.996Z,48.39
2019-02-23T23:13:38.816Z,49.09
2019-02-23T23:16:08.575Z,49.50
2019-02-23T23:18:38.383Z,50.09
2019-02-23T23:21:08.182Z,50.06
2019-02-23T23:23:48.478Z,49.41
2019-02-23T23:26:26.680Z,49.32
2019-02-23T23:29:07.164Z,50.34
2019-02-23T23:31:37.676Z,50.39
2019-02-23T23:34:15.162Z,50.39
2019-02-23T23:36:45.819Z,50.03
2019-02-23T23:39:15.657Z,51.46
2019-02-23T23:41:53.253Z,50.83
2019-02-23T23:44:35.658Z,51.14
2019-02-23T23:47:09.711Z,51.38
2019-02-23T23:49:39.553Z,51.53
2019-02-23T23:52:19.285Z,51.72
2019-02-23T23:54:51.979Z,51.74
2019-02-23T23:57:21.799Z,51.81
